sensor_id;sensor_type;location;lat;lon;timestamp;pressure;altitude;pressure_sealevel;temperature;humidity
55315;BME280;41619;42.816;23.226;2023-02-19T00:01:16;95835.06;;;3.13;60.64
55315;BME280;41619;42.816;23.226;2023-02-19T00:03:47;95843.16;;;3.13;60.67
55315;BME280;41619;42.816;23.226;2023-02-19T00:06:13;95833.16;;;3.13;60.91
55315;BME280;41619;42.816;23.226;2023-02-19T00:08:39;95829.66;;;3.13;60.55
55315;BME280;41619;42.816;23.226;2023-02-19T00:11:07;95831.06;;;3.10;60.58
55315;BME280;41619;42.816;23.226;2023-02-19T00:13:38;95832.66;;;3.11;60.80
55315;BME280;41619;42.816;23.226;2023-02-19T00:16:16;95832.19;;;3.09;60.80
55315;BME280;41619;42.816;23.226;2023-02-19T00:18:41;95825.47;;;3.07;60.82
55315;BME280;41619;42.816;23.226;2023-02-19T00:21:07;95825.78;;;3.05;61.29
55315;BME280;41619;42.816;23.226;2023-02-19T00:23:33;95822.28;;;3.04;60.96
55315;BME280;41619;42.816;23.226;2023-02-19T00:26:10;95820.38;;;3.05;61.41
55315;BME280;41619;42.816;23.226;2023-02-19T00:28:36;95815.78;;;3.06;61.47
55315;BME280;41619;42.816;23.226;2023-02-19T00:33:42;95811.34;;;3.10;61.40
55315;BME280;41619;42.816;23.226;2023-02-19T00:36:07;95803.41;;;3.13;61.45
55315;BME280;41619;42.816;23.226;2023-02-19T00:38:36;95795.50;;;3.17;61.25
55315;BME280;41619;42.816;23.226;2023-02-19T00:41:03;95793.28;;;3.19;61.22
55315;BME280;41619;42.816;23.226;2023-02-19T00:44:05;95781.84;;;3.22;61.69
55315;BME280;41619;42.816;23.226;2023-02-19T00:48:59;95784.53;;;3.22;61.27
55315;BME280;41619;42.816;23.226;2023-02-19T00:51:28;95790.88;;;3.17;61.34
55315;BME280;41619;42.816;23.226;2023-02-19T00:53:54;95798.78;;;3.14;61.44
55315;BME280;41619;42.816;23.226;2023-02-19T00:56:20;95804.16;;;3.05;61.97
55315;BME280;41619;42.816;23.226;2023-02-19T00:58:46;95810.81;;;2.99;61.69
55315;BME280;41619;42.816;23.226;2023-02-19T01:01:12;95803.59;;;2.94;61.87
55315;BME280;41619;42.816;23.226;2023-02-19T01:03:38;95802.63;;;2.90;62.43
55315;BME280;41619;42.816;23.226;2023-02-19T01:06:05;95795.13;;;2.87;62.29
55315;BME280;41619;42.816;23.226;2023-02-19T01:08:31;95793.53;;;2.86;62.16
55315;BME280;41619;42.816;23.226;2023-02-19T01:10:58;95787.81;;;2.88;62.50
55315;BME280;41619;42.816;23.226;2023-02-19T01:13:23;95786.09;;;2.92;62.15
55315;BME280;41619;42.816;23.226;2023-02-19T01:15:49;95786.75;;;2.97;62.46
55315;BME280;41619;42.816;23.226;2023-02-19T01:18:14;95789.66;;;3.01;62.69
55315;BME280;41619;42.816;23.226;2023-02-19T01:20:42;95790.16;;;3.03;62.31
55315;BME280;41619;42.816;23.226;2023-02-19T01:23:09;95793.84;;;3.07;62.65
55315;BME280;41619;42.816;23.226;2023-02-19T01:25:37;95789.22;;;3.08;62.79
55315;BME280;41619;42.816;23.226;2023-02-19T01:28:03;95794.50;;;3.13;62.35
55315;BME280;41619;42.816;23.226;2023-02-19T01:30:28;95795.78;;;3.15;62.60
55315;BME280;41619;42.816;23.226;2023-02-19T01:32:54;95819.69;;;3.22;62.73
55315;BME280;41619;42.816;23.226;2023-02-19T01:35:19;95825.16;;;3.30;62.80
55315;BME280;41619;42.816;23.226;2023-02-19T01:37:45;95822.81;;;3.38;62.78
55315;BME280;41619;42.816;23.226;2023-02-19T01:40:10;95824.28;;;3.44;62.87
55315;BME280;41619;42.816;23.226;2023-02-19T01:42:36;95822.53;;;3.48;62.39
55315;BME280;41619;42.816;23.226;2023-02-19T01:45:34;95812.69;;;3.52;62.54
55315;BME280;41619;42.816;23.226;2023-02-19T01:48:22;95813.47;;;3.52;62.75
55315;BME280;41619;42.816;23.226;2023-02-19T01:50:53;95806.66;;;3.55;62.60
55315;BME280;41619;42.816;23.226;2023-02-19T01:53:23;95808.59;;;3.54;62.41
55315;BME280;41619;42.816;23.226;2023-02-19T01:55:50;95820.69;;;3.57;62.50
55315;BME280;41619;42.816;23.226;2023-02-19T01:58:17;95824.19;;;3.57;62.66
55315;BME280;41619;42.816;23.226;2023-02-19T02:00:43;95828.50;;;3.58;62.58
55315;BME280;41619;42.816;23.226;2023-02-19T02:03:09;95821.16;;;3.59;62.49
55315;BME280;41619;42.816;23.226;2023-02-19T02:08:04;95817.84;;;3.62;62.79
55315;BME280;41619;42.816;23.226;2023-02-19T02:10:49;95819.75;;;3.61;62.46
55315;BME280;41619;42.816;23.226;2023-02-19T02:13:14;95814.00;;;3.63;62.59
55315;BME280;41619;42.816;23.226;2023-02-19T02:21:32;95802.41;;;3.62;62.85
55315;BME280;41619;42.816;23.226;2023-02-19T02:31:51;95820.84;;;3.60;62.79
55315;BME280;41619;42.816;23.226;2023-02-19T02:34:23;95820.84;;;3.60;63.01
55315;BME280;41619;42.816;23.226;2023-02-19T02:36:53;95826.09;;;3.57;62.79
55315;BME280;41619;42.816;23.226;2023-02-19T02:39:23;95825.09;;;3.53;62.57
55315;BME280;41619;42.816;23.226;2023-02-19T02:41:54;95827.31;;;3.51;63.13
55315;BME280;41619;42.816;23.226;2023-02-19T02:44:40;95826.84;;;3.49;63.08
55315;BME280;41619;42.816;23.226;2023-02-19T02:47:07;95834.16;;;3.48;63.07
55315;BME280;41619;42.816;23.226;2023-02-19T02:49:55;95836.06;;;3.48;63.27
55315;BME280;41619;42.816;23.226;2023-02-19T02:52:36;95839.56;;;3.48;63.26
55315;BME280;41619;42.816;23.226;2023-02-19T02:55:21;95833.97;;;3.45;62.93
55315;BME280;41619;42.816;23.226;2023-02-19T02:57:46;95842.09;;;3.45;63.31
55315;BME280;41619;42.816;23.226;2023-02-19T03:00:13;95831.28;;;3.45;63.19
55315;BME280;41619;42.816;23.226;2023-02-19T03:02:41;95822.06;;;3.46;63.49
55315;BME280;41619;42.816;23.226;2023-02-19T03:07:57;95824.75;;;3.46;63.52
55315;BME280;41619;42.816;23.226;2023-02-19T03:10:33;95832.56;;;3.47;63.24
55315;BME280;41619;42.816;23.226;2023-02-19T03:13:02;95833.34;;;3.48;63.20
55315;BME280;41619;42.816;23.226;2023-02-19T03:16:01;95837.19;;;3.47;63.57
55315;BME280;41619;42.816;23.226;2023-02-19T03:18:51;95839.09;;;3.46;63.78
55315;BME280;41619;42.816;23.226;2023-02-19T03:21:38;95844.16;;;3.39;63.46
55315;BME280;41619;42.816;23.226;2023-02-19T03:24:06;95840.59;;;3.30;63.73
55315;BME280;41619;42.816;23.226;2023-02-19T03:26:53;95841.34;;;3.22;63.68
55315;BME280;41619;42.816;23.226;2023-02-19T03:29:22;95851.19;;;3.18;63.81
55315;BME280;41619;42.816;23.226;2023-02-19T03:31:57;95851.78;;;3.15;63.73
55315;BME280;41619;42.816;23.226;2023-02-19T03:34:28;95860.03;;;3.10;63.83
55315;BME280;41619;42.816;23.226;2023-02-19T03:37:02;95866.97;;;3.02;64.20
55315;BME280;41619;42.816;23.226;2023-02-19T03:39:31;95872.00;;;2.95;64.05
55315;BME280;41619;42.816;23.226;2023-02-19T03:42:47;95863.53;;;2.88;64.40
55315;BME280;41619;42.816;23.226;2023-02-19T03:45:20;95879.47;;;2.76;64.26
55315;BME280;41619;42.816;23.226;2023-02-19T03:48:01;95881.50;;;2.70;64.36
55315;BME280;41619;42.816;23.226;2023-02-19T03:53:48;95883.31;;;2.61;64.92
55315;BME280;41619;42.816;23.226;2023-02-19T03:56:32;95886.31;;;2.59;64.56
55315;BME280;41619;42.816;23.226;2023-02-19T04:01:43;95896.94;;;2.56;64.85
55315;BME280;41619;42.816;23.226;2023-02-19T04:05:02;95895.94;;;2.52;65.01
55315;BME280;41619;42.816;23.226;2023-02-19T04:07:02;95898.44;;;2.48;65.19
55315;BME280;41619;42.816;23.226;2023-02-19T04:09:35;95891.25;;;2.43;65.01
55315;BME280;41619;42.816;23.226;2023-02-19T04:12:04;95894.28;;;2.42;64.88
55315;BME280;41619;42.816;23.226;2023-02-19T04:14:42;95899.44;;;2.38;64.75
55315;BME280;41619;42.816;23.226;2023-02-19T04:17:17;95903.38;;;2.32;65.24
55315;BME280;41619;42.816;23.226;2023-02-19T04:19:46;95898.38;;;2.26;65.17
55315;BME280;41619;42.816;23.226;2023-02-19T04:22:15;95897.97;;;2.19;65.68
55315;BME280;41619;42.816;23.226;2023-02-19T04:24:49;95900.28;;;2.11;65.38
55315;BME280;41619;42.816;23.226;2023-02-19T04:27:15;95899.88;;;2.04;65.64
55315;BME280;41619;42.816;23.226;2023-02-19T04:29:41;95898.06;;;2.00;65.78
55315;BME280;41619;42.816;23.226;2023-02-19T04:32:09;95894.06;;;1.97;66.02
55315;BME280;41619;42.816;23.226;2023-02-19T04:34:34;95900.56;;;1.96;65.52
55315;BME280;41619;42.816;23.226;2023-02-19T04:37:00;95905.16;;;1.96;65.85
55315;BME280;41619;42.816;23.226;2023-02-19T04:39:25;95902.16;;;1.97;65.39
55315;BME280;41619;42.816;23.226;2023-02-19T04:41:50;95908.66;;;1.96;65.92
55315;BME280;41619;42.816;23.226;2023-02-19T04:44:16;95903.88;;;1.93;65.79
55315;BME280;41619;42.816;23.226;2023-02-19T04:46:41;95914.97;;;1.92;65.79
55315;BME280;41619;42.816;23.226;2023-02-19T04:49:07;95916.38;;;1.89;66.06
55315;BME280;41619;42.816;23.226;2023-02-19T04:51:32;95916.38;;;1.89;66.26
55315;BME280;41619;42.816;23.226;2023-02-19T04:53:57;95915.06;;;1.87;66.26
55315;BME280;41619;42.816;23.226;2023-02-19T04:56:23;95908.03;;;1.86;66.33
55315;BME280;41619;42.816;23.226;2023-02-19T04:58:48;95909.94;;;1.85;66.28
55315;BME280;41619;42.816;23.226;2023-02-19T05:01:14;95901.59;;;1.87;66.07
55315;BME280;41619;42.816;23.226;2023-02-19T05:03:40;95907.47;;;1.89;66.39
55315;BME280;41619;42.816;23.226;2023-02-19T05:06:08;95915.16;;;1.95;66.68
55315;BME280;41619;42.816;23.226;2023-02-19T05:08:34;95911.56;;;2.00;66.43
55315;BME280;41619;42.816;23.226;2023-02-19T05:11:01;95912.66;;;1.99;66.03
55315;BME280;41619;42.816;23.226;2023-02-19T05:13:27;95914.06;;;1.96;66.14
55315;BME280;41619;42.816;23.226;2023-02-19T05:16:00;95912.16;;;1.97;66.38
55315;BME280;41619;42.816;23.226;2023-02-19T05:18:26;95908.16;;;1.94;66.48
55315;BME280;41619;42.816;23.226;2023-02-19T05:20:52;95906.47;;;1.98;66.05
55315;BME280;41619;42.816;23.226;2023-02-19T05:23:19;95905.97;;;2.10;66.45
55315;BME280;41619;42.816;23.226;2023-02-19T05:25:46;95905.19;;;2.23;66.76
55315;BME280;41619;42.816;23.226;2023-02-19T05:28:11;95911.38;;;2.37;66.77
55315;BME280;41619;42.816;23.226;2023-02-19T05:30:50;95913.94;;;2.56;65.70
55315;BME280;41619;42.816;23.226;2023-02-19T05:33:18;95919.50;;;2.73;65.83
55315;BME280;41619;42.816;23.226;2023-02-19T05:35:47;95908.06;;;2.90;66.09
55315;BME280;41619;42.816;23.226;2023-02-19T05:38:14;95916.13;;;3.04;65.24
55315;BME280;41619;42.816;23.226;2023-02-19T05:40:40;95922.63;;;3.17;nan
55315;BME280;41619;42.816;23.226;2023-02-19T05:43:06;95924.09;;;3.23;64.93
55315;BME280;41619;42.816;23.226;2023-02-19T05:45:32;95927.63;;;3.10;64.63
55315;BME280;41619;42.816;23.226;2023-02-19T05:47:58;95934.97;;;2.95;64.78
55315;BME280;41619;42.816;23.226;2023-02-19T05:50:23;95934.59;;;2.88;65.44
55315;BME280;41619;42.816;23.226;2023-02-19T05:52:49;95932.22;;;2.87;65.50
55315;BME280;41619;42.816;23.226;2023-02-19T05:55:14;95932.56;;;2.94;65.91
55315;BME280;41619;42.816;23.226;2023-02-19T05:57:41;95943.66;;;3.06;65.57
55315;BME280;41619;42.816;23.226;2023-02-19T06:00:08;95954.06;;;3.13;65.74
55315;BME280;41619;42.816;23.226;2023-02-19T06:02:35;95967.50;;;3.18;65.12
55315;BME280;41619;42.816;23.226;2023-02-19T06:05:01;95962.44;;;3.25;65.37
55315;BME280;41619;42.816;23.226;2023-02-19T06:07:26;95963.81;;;3.36;65.53
55315;BME280;41619;42.816;23.226;2023-02-19T06:09:51;95963.44;;;3.51;65.41
55315;BME280;41619;42.816;23.226;2023-02-19T06:12:17;95967.81;;;3.61;65.32
55315;BME280;41619;42.816;23.226;2023-02-19T06:14:42;95963.56;;;3.69;65.25
55315;BME280;41619;42.816;23.226;2023-02-19T06:17:08;95969.84;;;3.78;64.91
55315;BME280;41619;42.816;23.226;2023-02-19T06:19:33;95963.34;;;3.87;64.97
55315;BME280;41619;42.816;23.226;2023-02-19T06:21:58;95970.44;;;3.97;64.69
55315;BME280;41619;42.816;23.226;2023-02-19T06:24:24;95970.94;;;4.08;64.71
55315;BME280;41619;42.816;23.226;2023-02-19T06:26:49;95968.47;;;4.20;64.54
55315;BME280;41619;42.816;23.226;2023-02-19T06:29:15;95975.72;;;4.33;64.38
55315;BME280;41619;42.816;23.226;2023-02-19T06:31:41;95977.53;;;4.46;64.52
55315;BME280;41619;42.816;23.226;2023-02-19T06:34:06;95970.06;;;4.61;64.06
55315;BME280;41619;42.816;23.226;2023-02-19T06:36:32;95975.53;;;4.78;64.23
55315;BME280;41619;42.816;23.226;2023-02-19T06:39:02;95974.63;;;5.00;63.80
55315;BME280;41619;42.816;23.226;2023-02-19T06:41:28;95976.59;;;5.25;63.25
55315;BME280;41619;42.816;23.226;2023-02-19T06:43:53;95980.25;;;5.55;63.42
55315;BME280;41619;42.816;23.226;2023-02-19T06:46:19;95974.97;;;5.85;62.66
55315;BME280;41619;42.816;23.226;2023-02-19T06:48:44;95976.03;;;6.18;62.66
55315;BME280;41619;42.816;23.226;2023-02-19T06:51:11;95983.13;;;6.49;61.71
55315;BME280;41619;42.816;23.226;2023-02-19T06:53:37;95984.75;;;6.79;61.51
55315;BME280;41619;42.816;23.226;2023-02-19T06:56:20;95983.31;;;7.11;61.23
55315;BME280;41619;42.816;23.226;2023-02-19T06:58:46;95982.72;;;7.47;60.94
55315;BME280;41619;42.816;23.226;2023-02-19T07:01:11;95977.66;;;7.79;61.27
55315;BME280;41619;42.816;23.226;2023-02-19T07:03:37;95977.19;;;8.10;60.40
55315;BME280;41619;42.816;23.226;2023-02-19T07:06:02;95983.34;;;8.52;60.77
55315;BME280;41619;42.816;23.226;2023-02-19T07:08:28;95976.97;;;9.21;61.56
55315;BME280;41619;42.816;23.226;2023-02-19T07:10:55;95971.38;;;10.85;60.37
55315;BME280;41619;42.816;23.226;2023-02-19T07:13:22;95975.34;;;13.00;56.61
55315;BME280;41619;42.816;23.226;2023-02-19T07:15:47;95958.25;;;15.05;52.50
55315;BME280;41619;42.816;23.226;2023-02-19T07:18:13;95951.22;;;16.81;48.93
55315;BME280;41619;42.816;23.226;2023-02-19T07:20:38;95958.53;;;18.23;45.91
55315;BME280;41619;42.816;23.226;2023-02-19T07:23:04;95948.56;;;19.51;43.66
55315;BME280;41619;42.816;23.226;2023-02-19T07:25:29;95943.56;;;20.48;41.70
55315;BME280;41619;42.816;23.226;2023-02-19T07:27:54;95950.22;;;21.58;40.01
55315;BME280;41619;42.816;23.226;2023-02-19T07:30:20;95945.97;;;23.09;37.79
55315;BME280;41619;42.816;23.226;2023-02-19T07:32:45;95949.97;;;24.60;35.23
55315;BME280;41619;42.816;23.226;2023-02-19T07:35:10;95941.56;;;25.61;33.06
55315;BME280;41619;42.816;23.226;2023-02-19T07:37:36;95938.91;;;26.49;31.88
55315;BME280;41619;42.816;23.226;2023-02-19T07:40:02;95926.75;;;27.05;30.87
55315;BME280;41619;42.816;23.226;2023-02-19T07:42:27;95925.53;;;27.64;29.46
55315;BME280;41619;42.816;23.226;2023-02-19T07:44:52;95922.28;;;27.84;29.02
55315;BME280;41619;42.816;23.226;2023-02-19T07:47:18;95932.47;;;28.18;28.73
55315;BME280;41619;42.816;23.226;2023-02-19T07:49:43;95928.16;;;28.78;27.43
55315;BME280;41619;42.816;23.226;2023-02-19T07:52:10;95916.78;;;29.57;26.32
55315;BME280;41619;42.816;23.226;2023-02-19T07:54:35;95923.84;;;30.00;25.23
55315;BME280;41619;42.816;23.226;2023-02-19T07:57:01;95934.94;;;30.03;25.21
55315;BME280;41619;42.816;23.226;2023-02-19T07:59:26;95926.00;;;30.05;24.98
55315;BME280;41619;42.816;23.226;2023-02-19T08:01:51;95923.03;;;30.77;24.06
55315;BME280;41619;42.816;23.226;2023-02-19T08:04:35;95922.38;;;31.46;22.90
55315;BME280;41619;42.816;23.226;2023-02-19T08:07:01;95925.22;;;31.67;22.23
55315;BME280;41619;42.816;23.226;2023-02-19T08:09:26;95919.16;;;31.74;21.83
55315;BME280;41619;42.816;23.226;2023-02-19T08:11:52;95917.19;;;32.00;21.44
55315;BME280;41619;42.816;23.226;2023-02-19T08:14:36;95920.38;;;31.87;20.91
55315;BME280;41619;42.816;23.226;2023-02-19T08:17:01;95916.69;;;31.81;20.83
55315;BME280;41619;42.816;23.226;2023-02-19T08:19:27;95921.19;;;32.14;20.18
55315;BME280;41619;42.816;23.226;2023-02-19T08:21:52;95913.25;;;32.59;19.46
55315;BME280;41619;42.816;23.226;2023-02-19T08:24:18;95912.78;;;32.66;19.20
55315;BME280;41619;42.816;23.226;2023-02-19T08:26:43;95906.00;;;32.58;19.07
55315;BME280;41619;42.816;23.226;2023-02-19T08:29:09;95913.06;;;32.94;18.92
55315;BME280;41619;42.816;23.226;2023-02-19T08:31:34;95899.56;;;33.15;18.41
55315;BME280;41619;42.816;23.226;2023-02-19T08:34:00;95907.25;;;33.40;17.95
55315;BME280;41619;42.816;23.226;2023-02-19T08:36:25;95901.59;;;33.40;18.09
55315;BME280;41619;42.816;23.226;2023-02-19T08:38:51;95899.88;;;33.22;17.58
55315;BME280;41619;42.816;23.226;2023-02-19T08:41:16;95906.28;;;33.49;17.19
55315;BME280;41619;42.816;23.226;2023-02-19T08:43:42;95898.28;;;33.90;17.23
55315;BME280;41619;42.816;23.226;2023-02-19T08:46:10;95885.25;;;34.31;16.24
55315;BME280;41619;42.816;23.226;2023-02-19T08:48:37;95882.72;;;34.45;16.06
55315;BME280;41619;42.816;23.226;2023-02-19T08:51:05;95886.09;;;34.54;16.09
55315;BME280;41619;42.816;23.226;2023-02-19T08:53:33;95884.81;;;34.55;15.99
55315;BME280;41619;42.816;23.226;2023-02-19T08:56:04;95871.38;;;34.50;15.28
55315;BME280;41619;42.816;23.226;2023-02-19T08:58:29;95874.72;;;34.49;15.70
55315;BME280;41619;42.816;23.226;2023-02-19T09:00:56;95865.94;;;34.58;14.97
55315;BME280;41619;42.816;23.226;2023-02-19T09:03:22;95865.97;;;34.69;15.08
55315;BME280;41619;42.816;23.226;2023-02-19T09:05:47;95857.44;;;34.80;14.76
55315;BME280;41619;42.816;23.226;2023-02-19T09:08:13;95854.06;;;34.65;14.65
55315;BME280;41619;42.816;23.226;2023-02-19T09:10:40;95856.22;;;33.99;15.02
55315;BME280;41619;42.816;23.226;2023-02-19T09:13:05;95847.69;;;33.46;14.35
55315;BME280;41619;42.816;23.226;2023-02-19T09:15:30;95843.13;;;31.81;15.47
55315;BME280;41619;42.816;23.226;2023-02-19T09:17:57;95855.38;;;29.75;16.42
55315;BME280;41619;42.816;23.226;2023-02-19T09:20:23;95850.56;;;27.80;17.70
55315;BME280;41619;42.816;23.226;2023-02-19T09:22:48;95851.38;;;26.19;18.83
55315;BME280;41619;42.816;23.226;2023-02-19T09:25:14;95855.47;;;24.89;19.77
55315;BME280;41619;42.816;23.226;2023-02-19T09:27:39;95842.78;;;23.79;20.74
55315;BME280;41619;42.816;23.226;2023-02-19T09:30:05;95843.16;;;22.71;21.52
55315;BME280;41619;42.816;23.226;2023-02-19T09:32:31;95842.38;;;21.98;22.38
55315;BME280;41619;42.816;23.226;2023-02-19T09:34:56;95844.84;;;21.53;22.85
55315;BME280;41619;42.816;23.226;2023-02-19T09:37:28;95842.75;;;21.14;23.52
55315;BME280;41619;42.816;23.226;2023-02-19T09:39:54;95841.84;;;20.97;23.63
55315;BME280;41619;42.816;23.226;2023-02-19T09:42:22;95836.78;;;20.92;23.90
55315;BME280;41619;42.816;23.226;2023-02-19T09:44:51;95836.72;;;20.72;24.18
55315;BME280;41619;42.816;23.226;2023-02-19T09:47:22;95832.78;;;20.43;24.67
55315;BME280;41619;42.816;23.226;2023-02-19T09:49:50;95826.59;;;20.32;24.71
55315;BME280;41619;42.816;23.226;2023-02-19T09:55:09;95810.19;;;20.14;25.39
55315;BME280;41619;42.816;23.226;2023-02-19T09:57:37;95806.66;;;20.10;25.50
55315;BME280;41619;42.816;23.226;2023-02-19T10:00:30;95807.94;;;20.02;26.21
55315;BME280;41619;42.816;23.226;2023-02-19T10:03:08;95810.72;;;20.02;26.50
55315;BME280;41619;42.816;23.226;2023-02-19T10:05:35;95794.63;;;20.47;26.84
55315;BME280;41619;42.816;23.226;2023-02-19T10:08:08;95788.03;;;21.51;26.75
55315;BME280;41619;42.816;23.226;2023-02-19T10:10:36;95785.72;;;23.35;25.61
55315;BME280;41619;42.816;23.226;2023-02-19T10:18:10;95767.47;;;28.48;21.86
55315;BME280;41619;42.816;23.226;2023-02-19T10:20:35;95769.03;;;29.54;20.23
55315;BME280;41619;42.816;23.226;2023-02-19T10:23:04;95757.75;;;30.07;19.39
55315;BME280;41619;42.816;23.226;2023-02-19T10:25:32;95751.88;;;29.81;18.88
55315;BME280;41619;42.816;23.226;2023-02-19T10:27:58;95746.50;;;28.82;19.08
55315;BME280;41619;42.816;23.226;2023-02-19T10:30:28;95737.47;;;27.30;19.68
55315;BME280;41619;42.816;23.226;2023-02-19T10:33:10;95736.00;;;25.77;20.88
55315;BME280;41619;42.816;23.226;2023-02-19T10:38:18;95720.09;;;23.56;22.70
55315;BME280;41619;42.816;23.226;2023-02-19T10:40:45;95729.63;;;22.84;23.55
55315;BME280;41619;42.816;23.226;2023-02-19T10:43:21;95719.38;;;22.32;24.32
55315;BME280;41619;42.816;23.226;2023-02-19T10:45:48;95711.28;;;22.22;24.76
55315;BME280;41619;42.816;23.226;2023-02-19T10:48:32;95704.28;;;22.62;24.86
55315;BME280;41619;42.816;23.226;2023-02-19T10:51:01;95707.13;;;23.49;24.94
55315;BME280;41619;42.816;23.226;2023-02-19T10:56:22;95691.84;;;26.31;22.88
55315;BME280;41619;42.816;23.226;2023-02-19T10:58:48;95682.06;;;27.21;22.22
55315;BME280;41619;42.816;23.226;2023-02-19T11:01:19;95674.47;;;27.91;21.53
55315;BME280;41619;42.816;23.226;2023-02-19T11:03:46;95680.09;;;28.67;21.10
55315;BME280;41619;42.816;23.226;2023-02-19T11:06:13;95670.56;;;29.27;20.02
55315;BME280;41619;42.816;23.226;2023-02-19T11:11:07;95657.69;;;30.23;19.25
55315;BME280;41619;42.816;23.226;2023-02-19T11:13:33;95663.09;;;30.41;18.95
55315;BME280;41619;42.816;23.226;2023-02-19T11:16:02;95651.22;;;30.37;18.14
55315;BME280;41619;42.816;23.226;2023-02-19T11:18:32;95652.47;;;30.51;17.79
55315;BME280;41619;42.816;23.226;2023-02-19T11:21:03;95640.28;;;30.45;17.60
55315;BME280;41619;42.816;23.226;2023-02-19T11:25:59;95623.16;;;30.13;16.73
55315;BME280;41619;42.816;23.226;2023-02-19T11:28:37;95619.81;;;29.12;17.14
55315;BME280;41619;42.816;23.226;2023-02-19T11:34:00;95620.34;;;26.35;19.49
55315;BME280;41619;42.816;23.226;2023-02-19T11:36:33;95611.44;;;25.25;20.39
55315;BME280;41619;42.816;23.226;2023-02-19T11:39:25;95606.03;;;24.53;21.16
55315;BME280;41619;42.816;23.226;2023-02-19T11:49:54;95597.09;;;23.05;22.61
55315;BME280;41619;42.816;23.226;2023-02-19T11:57:48;95581.88;;;22.35;23.21
55315;BME280;41619;42.816;23.226;2023-02-19T12:00:26;95571.03;;;22.09;23.62
55315;BME280;41619;42.816;23.226;2023-02-19T12:03:16;95563.44;;;21.93;24.10
55315;BME280;41619;42.816;23.226;2023-02-19T12:08:58;95546.91;;;21.69;24.13
55315;BME280;41619;42.816;23.226;2023-02-19T12:43:00;95480.00;;;21.24;24.98
55315;BME280;41619;42.816;23.226;2023-02-19T12:45:32;95471.56;;;21.28;24.97
55315;BME280;41619;42.816;23.226;2023-02-19T12:50:53;95453.88;;;21.34;25.04
55315;BME280;41619;42.816;23.226;2023-02-19T12:53:31;95449.28;;;21.44;24.95
55315;BME280;41619;42.816;23.226;2023-02-19T12:56:02;95454.84;;;21.44;24.89
55315;BME280;41619;42.816;23.226;2023-02-19T12:58:36;95453.28;;;21.43;25.07
55315;BME280;41619;42.816;23.226;2023-02-19T13:01:06;95444.06;;;21.46;25.04
55315;BME280;41619;42.816;23.226;2023-02-19T13:04:23;95439.97;;;21.51;25.07
55315;BME280;41619;42.816;23.226;2023-02-19T13:11:37;95413.56;;;21.55;25.33
55315;BME280;41619;42.816;23.226;2023-02-19T13:16:39;95413.50;;;21.59;25.19
55315;BME280;41619;42.816;23.226;2023-02-19T13:19:08;95405.84;;;21.63;25.08
55315;BME280;41619;42.816;23.226;2023-02-19T13:21:36;95394.59;;;21.66;25.03
55315;BME280;41619;42.816;23.226;2023-02-19T13:24:27;95396.41;;;21.73;25.02
55315;BME280;41619;42.816;23.226;2023-02-19T13:26:58;95393.94;;;21.75;25.34
55315;BME280;41619;42.816;23.226;2023-02-19T13:37:45;95380.47;;;21.73;25.24
55315;BME280;41619;42.816;23.226;2023-02-19T13:40:41;95382.47;;;21.73;25.33
55315;BME280;41619;42.816;23.226;2023-02-19T13:43:25;95370.47;;;21.76;25.22
55315;BME280;41619;42.816;23.226;2023-02-19T13:45:57;95364.53;;;21.74;25.13
55315;BME280;41619;42.816;23.226;2023-02-19T13:50:49;95365.41;;;21.09;25.74
55315;BME280;41619;42.816;23.226;2023-02-19T14:14:49;95344.56;;;22.97;23.95
55315;BME280;41619;42.816;23.226;2023-02-19T14:17:38;95345.81;;;22.83;24.18
55315;BME280;41619;42.816;23.226;2023-02-19T14:25:41;95338.47;;;20.38;26.51
55315;BME280;41619;42.816;23.226;2023-02-19T14:31:42;95323.16;;;19.34;27.76
55315;BME280;41619;42.816;23.226;2023-02-19T14:33:50;95330.13;;;18.99;28.28
55315;BME280;41619;42.816;23.226;2023-02-19T14:38:56;95320.94;;;18.52;29.16
55315;BME280;41619;42.816;23.226;2023-02-19T14:41:24;95323.22;;;18.33;29.23
55315;BME280;41619;42.816;23.226;2023-02-19T14:43:55;95317.50;;;18.17;29.60
55315;BME280;41619;42.816;23.226;2023-02-19T14:46:34;95320.06;;;18.04;29.83
55315;BME280;41619;42.816;23.226;2023-02-19T14:49:15;95314.69;;;17.94;29.95
55315;BME280;41619;42.816;23.226;2023-02-19T14:51:45;95319.13;;;17.84;30.18
55315;BME280;41619;42.816;23.226;2023-02-19T14:54:21;95315.75;;;17.73;30.41
55315;BME280;41619;42.816;23.226;2023-02-19T14:56:52;95315.03;;;17.62;30.52
55315;BME280;41619;42.816;23.226;2023-02-19T15:01:43;95306.22;;;17.40;31.02
55315;BME280;41619;42.816;23.226;2023-02-19T15:04:24;95297.25;;;17.29;31.58
55315;BME280;41619;42.816;23.226;2023-02-19T15:06:50;95300.13;;;17.18;31.50
55315;BME280;41619;42.816;23.226;2023-02-19T15:09:18;95297.50;;;17.04;31.52
55315;BME280;41619;42.816;23.226;2023-02-19T15:11:45;95292.53;;;16.88;31.70
55315;BME280;41619;42.816;23.226;2023-02-19T15:14:18;95306.50;;;16.74;31.93
55315;BME280;41619;42.816;23.226;2023-02-19T15:16:45;95305.00;;;16.62;32.43
55315;BME280;41619;42.816;23.226;2023-02-19T15:19:12;95305.06;;;16.51;32.52
55315;BME280;41619;42.816;23.226;2023-02-19T15:21:43;95301.63;;;16.40;32.86
55315;BME280;41619;42.816;23.226;2023-02-19T15:24:11;95304.81;;;16.31;33.03
55315;BME280;41619;42.816;23.226;2023-02-19T15:26:41;95302.16;;;16.21;33.38
55315;BME280;41619;42.816;23.226;2023-02-19T15:29:14;95312.84;;;16.12;33.39
55315;BME280;41619;42.816;23.226;2023-02-19T15:31:48;95323.56;;;15.99;33.66
55315;BME280;41619;42.816;23.226;2023-02-19T15:34:19;95324.81;;;15.87;33.83
55315;BME280;41619;42.816;23.226;2023-02-19T15:36:47;95325.69;;;15.73;33.96
55315;BME280;41619;42.816;23.226;2023-02-19T15:39:23;95328.50;;;15.63;34.13
55315;BME280;41619;42.816;23.226;2023-02-19T15:41:56;95325.75;;;15.52;34.15
55315;BME280;41619;42.816;23.226;2023-02-19T15:46:54;95338.03;;;15.30;34.38